Domov
logo

Vyskúšajte rýchly a spoľahlivý webhosting

Aktuálne počasie

LZIB - letisko Bratislava

Hodnoty namerané: 02.04.2020, 17:00 SELČ
Aktuálny čas: 02.04.2020, 17:27 SELČ
Aktualizované: pred 27 min.
Teplota: 12°C
Rosný bod: -9°C
Vietor: 19 km/h 160° (JJV)
Dohľadnosť: viac ako 10 km
Stav počasia: bez zrážok
Oblačnosť: jasno
Vlhkosť vzduchu: 22 %
Tlak vzduchu: 1012 hPa
METAR: LZIB 021500Z 16010KT CAVOK 12/M09 Q1012 NOSIG

LZKZ - letisko Košice

Hodnoty namerané: 02.04.2020, 17:00 SELČ
Aktuálny čas: 02.04.2020, 17:27 SELČ
Aktualizované: pred 27 min.
Teplota: 11°C
Rosný bod: -10°C
Vietor: 20 km/h 180° (J) kolíše v rozsahu 150°-210° (JJV-JJZ)
Dohľadnosť: viac ako 10 km
Stav počasia: bez zrážok
Oblačnosť: jasno
Vlhkosť vzduchu: 22 %
Tlak vzduchu: 1012 hPa
METAR: LZKZ 021500Z 18011KT 150V210 CAVOK 11/M10 Q1012 NOSIG

LZPP - letisko Piešťany

Hodnoty namerané: 02.04.2020, 17:00 SELČ
Aktuálny čas: 02.04.2020, 17:27 SELČ
Aktualizované: pred 27 min.
Teplota: 12°C
Rosný bod: -10°C
Vietor: 11 km/h 180° (J) kolíše v rozsahu 130°-220° (JV-JZ)
Dohľadnosť: viac ako 10 km
Stav počasia: bez zrážok
Oblačnosť: jasno
Vlhkosť vzduchu: 21 %
Tlak vzduchu: 1012 hPa
METAR: LZPP 021500Z 18006KT 130V220 CAVOK 12/M10 Q1012

LZTT - letisko Poprad Tatry

Hodnoty namerané: 02.04.2020, 17:00 SELČ
Aktuálny čas: 02.04.2020, 17:27 SELČ
Aktualizované: pred 27 min.
Teplota: 9°C, pocitová teplota 6°C
Rosný bod: -11°C
Vietor: 17 km/h 200° (JJZ) kolíše v rozsahu 150°-240° (JJV-ZJZ)
Dohľadnosť: viac ako 10 km
Stav počasia: bez zrážok
Oblačnosť: jasno
Vlhkosť vzduchu: 23 %
Tlak vzduchu: 1010 hPa
METAR: LZTT 021500Z 20009KT 150V240 CAVOK 09/M11 Q1010 NOSIG

LZSL - letisko Sliač

Hodnoty namerané: 02.04.2020, 17:00 SELČ
Aktuálny čas: 02.04.2020, 17:27 SELČ
Aktualizované: pred 27 min.
Teplota: 11°C
Rosný bod: -10°C
Vietor: 13 km/h 180° (J) kolíše v rozsahu 140°-210° (JV-JJZ)
Dohľadnosť: viac ako 10 km
Stav počasia: bez zrážok
Oblačnosť: jasno
Vlhkosť vzduchu: 22 %
Tlak vzduchu: 1012 hPa
METAR: LZSL 021500Z 18007KT 140V210 CAVOK 11/M10 Q1012

LZZI - letisko Žilina

Hodnoty namerané: 02.04.2020, 17:00 SELČ
Aktuálny čas: 02.04.2020, 17:27 SELČ
Aktualizované: pred 27 min.
Teplota: 11°C
Rosný bod: -11°C
Vietor: 20 km/h 250° (ZJZ)
Dohľadnosť: viac ako 10 km
Stav počasia: bez zrážok
Oblačnosť: jasno
Vlhkosť vzduchu: 20 %
Tlak vzduchu: 1011 hPa
METAR: LZZI 021500Z 25011KT CAVOK 11/M11 Q1011

POZNÁMKY:

SEČ - stredoeurópsky čas (UTC+1hod.)

SELČ - stredoeurópsky letný čas (UTC+2hod.)

UTC - univerzálny svetový čas, GMT, ZULU

METAR - sú pravidelné kódované letecké meteorologické správy. Tie zostavujú a zverejňujú meteorologické stanice letísk v polhodinových/hodinových intervaloch. Na tejto stránke správy METAR zo slovenských letísk nájdete už v dekódovanej podobe.

hore